createdAt,value
2022-12-25T00:01:27.461Z,1.23
2022-12-25T00:06:30.182Z,1.24
2022-12-25T00:11:32.862Z,1.21
2022-12-25T00:16:35.659Z,1.13
2022-12-25T00:21:38.702Z,1.08
2022-12-25T00:26:41.370Z,1.07
2022-12-25T00:31:44.235Z,1.14
2022-12-25T00:36:50.894Z,1.17
2022-12-25T00:42:12.360Z,1.18
2022-12-25T00:47:16.194Z,1.17
2022-12-25T00:52:18.898Z,1.13
2022-12-25T00:57:21.596Z,1.05
2022-12-25T01:02:24.492Z,1.04
2022-12-25T01:07:27.602Z,1.11
2022-12-25T01:12:33.524Z,1.14
2022-12-25T01:17:36.763Z,1.17
2022-12-25T01:22:39.759Z,1.16
2022-12-25T01:27:42.779Z,1.15
2022-12-25T01:32:45.571Z,1.17
2022-12-25T01:37:48.227Z,1.22
2022-12-25T01:42:51.066Z,1.27
2022-12-25T01:47:53.867Z,1.36
2022-12-25T01:52:57.662Z,1.38
2022-12-25T01:58:00.740Z,1.32
2022-12-25T02:03:04.162Z,1.26
2022-12-25T02:08:12.730Z,1.27
2022-12-25T02:13:18.590Z,1.36
2022-12-25T02:18:32.477Z,1.46
2022-12-25T02:24:10.007Z,1.49
2022-12-25T02:29:12.705Z,1.50
2022-12-25T02:34:41.633Z,1.49
2022-12-25T02:39:59.557Z,1.49
2022-12-25T02:45:21.200Z,1.56
2022-12-25T02:50:44.303Z,1.58
2022-12-25T02:56:08.696Z,1.52
2022-12-25T03:01:35.500Z,1.45
2022-12-25T03:06:43.755Z,1.38
2022-12-25T03:11:49.841Z,1.37
2022-12-25T03:16:56.779Z,1.41
2022-12-25T03:22:18.084Z,1.46
2022-12-25T03:27:20.757Z,1.46
2022-12-25T03:32:48.576Z,1.41
2022-12-25T03:38:23.592Z,1.34
2022-12-25T03:44:12.502Z,1.32
2022-12-25T03:49:48.925Z,1.35
2022-12-25T03:55:15.129Z,1.40
2022-12-25T04:00:36.923Z,1.38
2022-12-25T04:05:58.168Z,1.33
2022-12-25T04:11:19.388Z,1.29
2022-12-25T04:16:40.618Z,1.28
2022-12-25T04:22:01.972Z,1.31
2022-12-25T04:27:23.499Z,1.36
2022-12-25T04:32:45.040Z,1.40
2022-12-25T04:37:47.909Z,1.46
2022-12-25T04:42:52.074Z,1.50
2022-12-25T04:47:54.728Z,1.54
2022-12-25T04:52:57.416Z,1.58
2022-12-25T04:58:00.197Z,1.60
2022-12-25T05:03:03.053Z,1.59
2022-12-25T05:08:06.498Z,1.57
2022-12-25T05:13:09.211Z,1.60
2022-12-25T05:18:11.909Z,1.68
2022-12-25T05:23:15.122Z,1.75
2022-12-25T05:28:18.623Z,1.79
2022-12-25T05:33:21.377Z,1.76
2022-12-25T05:38:24.211Z,1.69
2022-12-25T05:43:28.432Z,1.65
2022-12-25T05:48:31.227Z,1.66
2022-12-25T05:53:34.563Z,1.68
2022-12-25T05:58:39.211Z,1.69
2022-12-25T06:03:42.279Z,1.69
2022-12-25T06:08:45.643Z,1.69
2022-12-25T06:13:52.680Z,1.73
2022-12-25T06:18:55.346Z,1.78
2022-12-25T06:24:00.093Z,1.81
2022-12-25T06:29:03.218Z,1.83
2022-12-25T06:34:05.996Z,1.79
2022-12-25T06:39:09.709Z,1.70
2022-12-25T06:44:12.541Z,1.63
2022-12-25T06:49:15.366Z,1.59
2022-12-25T06:54:18.189Z,1.59
2022-12-25T06:59:22.187Z,1.62
2022-12-25T07:04:39.083Z,1.59
2022-12-25T07:09:42.743Z,1.60
2022-12-25T07:14:48.902Z,1.65
2022-12-25T07:19:51.895Z,1.69
2022-12-25T07:24:54.717Z,1.74
2022-12-25T07:29:57.401Z,1.77
2022-12-25T07:35:00.303Z,1.76
2022-12-25T07:40:03.713Z,1.75
2022-12-25T07:45:07.107Z,1.78
2022-12-25T07:50:10.306Z,1.81
2022-12-25T07:55:13.629Z,1.88
2022-12-25T08:00:17.369Z,1.93
2022-12-25T08:05:20.074Z,1.96
2022-12-25T08:10:22.773Z,1.99
2022-12-25T08:15:25.479Z,2.05
2022-12-25T08:20:28.285Z,2.16
2022-12-25T08:25:31.471Z,2.22
2022-12-25T08:30:34.151Z,2.27
2022-12-25T08:35:37.104Z,2.30
2022-12-25T08:40:39.805Z,2.30
2022-12-25T08:45:42.519Z,2.29
2022-12-25T08:50:47.234Z,2.35
2022-12-25T08:55:50.228Z,2.42
2022-12-25T09:00:53.455Z,2.47
2022-12-25T09:05:56.279Z,2.50
2022-12-25T09:11:07.819Z,2.52
2022-12-25T09:16:13.719Z,2.58
2022-12-25T09:21:17.642Z,2.65
2022-12-25T09:26:20.669Z,2.74
2022-12-25T09:31:23.938Z,2.79
2022-12-25T09:36:27.136Z,2.80
2022-12-25T09:42:20.783Z,2.92
2022-12-25T09:47:27.979Z,3.07
2022-12-25T09:52:37.375Z,3.14
2022-12-25T09:57:40.245Z,3.14
2022-12-25T10:02:55.411Z,3.04
2022-12-25T10:08:23.703Z,2.90
2022-12-25T10:13:50.106Z,2.87
2022-12-25T10:19:21.981Z,2.86
2022-12-25T10:24:39.012Z,2.81
2022-12-25T10:29:43.964Z,2.78
2022-12-25T10:34:46.744Z,2.71
2022-12-25T10:39:49.493Z,2.64
2022-12-25T10:44:59.744Z,2.72
2022-12-25T10:50:19.122Z,2.80
2022-12-25T10:55:28.162Z,2.83
2022-12-25T11:00:33.717Z,2.84
2022-12-25T11:05:36.855Z,2.83
2022-12-25T11:10:43.972Z,2.83
2022-12-25T11:16:01.559Z,2.85
2022-12-25T11:21:15.585Z,2.90
2022-12-25T11:26:18.755Z,2.95
2022-12-25T11:31:32.175Z,2.94
2022-12-25T11:36:47.316Z,2.87
2022-12-25T11:41:56.354Z,2.83
2022-12-25T11:47:12.894Z,2.82
2022-12-25T11:52:18.158Z,2.78
2022-12-25T11:57:25.252Z,2.79
2022-12-25T12:02:37.071Z,2.71
2022-12-25T12:07:57.696Z,2.71
2022-12-25T12:13:23.834Z,2.76
2022-12-25T12:18:26.564Z,2.78
2022-12-25T12:23:32.249Z,2.78
2022-12-25T12:28:45.259Z,2.76
2022-12-25T12:33:53.381Z,2.78
2022-12-25T12:38:58.437Z,2.84
2022-12-25T12:44:05.153Z,2.91
2022-12-25T12:49:28.495Z,2.94
2022-12-25T12:54:31.257Z,2.92
2022-12-25T12:59:44.373Z,2.93
2022-12-25T13:05:12.627Z,2.98
2022-12-25T13:10:37.840Z,3.05
2022-12-25T13:15:41.093Z,3.11
2022-12-25T13:21:04.139Z,3.07
2022-12-25T13:26:16.977Z,3.05
2022-12-25T13:31:25.365Z,3.11
2022-12-25T13:36:30.865Z,3.15
2022-12-25T13:42:03.100Z,3.15
2022-12-25T13:47:19.382Z,3.17
2022-12-25T13:52:34.191Z,3.19
2022-12-25T13:57:43.933Z,3.23
2022-12-25T14:02:48.030Z,3.25
2022-12-25T14:07:56.114Z,3.23
2022-12-25T14:13:03.629Z,3.19
2022-12-25T14:18:07.395Z,3.14
2022-12-25T14:23:16.250Z,3.11
2022-12-25T14:28:26.866Z,3.12
2022-12-25T14:33:36.823Z,3.14
2022-12-25T14:38:42.527Z,3.16
2022-12-25T14:43:55.581Z,3.13
2022-12-25T14:49:09.842Z,3.06
2022-12-25T14:54:23.144Z,2.98
2022-12-25T14:59:27.152Z,2.96
2022-12-25T15:04:30.379Z,2.97
2022-12-25T15:09:33.531Z,2.95
2022-12-25T15:14:38.577Z,2.91
2022-12-25T15:19:41.296Z,2.84
2022-12-25T15:24:44.069Z,2.81
2022-12-25T15:35:19.438Z,2.81
2022-12-25T15:40:22.171Z,2.82
2022-12-25T15:45:28.063Z,2.80
2022-12-25T15:50:32.792Z,2.79
2022-12-25T15:55:36.712Z,2.77
2022-12-25T16:00:39.468Z,2.74
2022-12-25T16:05:42.221Z,2.71
2022-12-25T16:10:45.127Z,2.67
2022-12-25T16:15:47.857Z,2.63
2022-12-25T16:20:52.263Z,2.64
2022-12-25T16:25:54.961Z,2.66
2022-12-25T16:30:57.765Z,2.65
2022-12-25T16:36:00.507Z,2.64
2022-12-25T16:41:03.389Z,2.69
2022-12-25T16:46:13.992Z,2.71
2022-12-25T16:51:19.759Z,2.75
2022-12-25T16:56:25.704Z,2.75
2022-12-25T17:01:29.026Z,2.77
2022-12-25T17:06:32.124Z,2.78
2022-12-25T17:11:34.912Z,2.76
2022-12-25T17:16:38.224Z,2.71
2022-12-25T17:21:40.993Z,2.69
2022-12-25T17:26:44.132Z,2.69
2022-12-25T17:31:46.925Z,2.67
2022-12-25T17:36:49.694Z,2.64
2022-12-25T17:41:52.545Z,2.63
2022-12-25T17:46:55.407Z,2.64
2022-12-25T17:51:58.247Z,2.63
2022-12-25T17:57:01.359Z,2.60
2022-12-25T18:02:04.098Z,2.60
2022-12-25T18:07:06.871Z,2.62
2022-12-25T18:12:09.559Z,2.64
2022-12-25T18:17:12.259Z,2.63
2022-12-25T18:22:14.972Z,2.64
2022-12-25T18:27:17.752Z,2.68
2022-12-25T18:32:26.315Z,2.71
2022-12-25T18:37:34.441Z,2.72
2022-12-25T18:42:43.470Z,2.76
2022-12-25T18:47:47.025Z,2.80
2022-12-25T18:52:51.678Z,2.83
2022-12-25T18:57:55.255Z,2.84
2022-12-25T19:02:59.301Z,2.83
2022-12-25T19:08:02.717Z,2.83
2022-12-25T19:13:06.215Z,2.87
2022-12-25T19:18:09.507Z,2.91
2022-12-25T19:23:12.209Z,2.91
2022-12-25T19:28:15.135Z,2.89
2022-12-25T19:33:18.206Z,2.89
2022-12-25T19:38:20.970Z,2.91
2022-12-25T19:43:23.752Z,2.91
2022-12-25T19:48:26.544Z,2.88
2022-12-25T19:53:30.464Z,2.91
2022-12-25T19:58:33.169Z,2.95
2022-12-25T20:03:43.672Z,2.97
2022-12-25T20:08:52.555Z,2.97
2022-12-25T20:13:56.321Z,2.97
2022-12-25T20:18:59.336Z,2.98
2022-12-25T20:24:02.050Z,2.98
2022-12-25T20:29:05.568Z,2.97
2022-12-25T20:34:11.255Z,2.98
2022-12-25T20:39:14.125Z,3.01
2022-12-25T20:44:17.123Z,3.05
2022-12-25T20:49:20.246Z,3.06
2022-12-25T20:54:22.932Z,3.10
2022-12-25T20:59:25.639Z,3.14
2022-12-25T21:04:28.332Z,3.16
2022-12-25T21:09:31.729Z,3.16
2022-12-25T21:14:34.853Z,3.16
2022-12-25T21:19:37.527Z,3.17
2022-12-25T21:24:40.253Z,3.14
2022-12-25T21:29:43.056Z,3.10
2022-12-25T21:34:45.768Z,3.09
2022-12-25T21:39:51.533Z,3.13
2022-12-25T21:44:54.239Z,3.18
2022-12-25T21:50:15.455Z,3.22
2022-12-25T21:55:18.131Z,3.23
2022-12-25T22:00:21.037Z,3.22
2022-12-25T22:05:42.368Z,3.24
2022-12-25T22:10:45.098Z,3.26
2022-12-25T22:16:06.784Z,3.29
2022-12-25T22:21:18.743Z,3.31
2022-12-25T22:26:21.570Z,3.35
2022-12-25T22:31:24.527Z,3.37
2022-12-25T22:36:27.493Z,3.37
2022-12-25T22:41:33.665Z,3.38
2022-12-25T22:46:37.133Z,3.39
2022-12-25T22:51:39.958Z,3.39
2022-12-25T22:56:45.108Z,3.39
2022-12-25T23:01:49.198Z,3.41
2022-12-25T23:06:52.022Z,3.44
2022-12-25T23:11:59.478Z,3.44
2022-12-25T23:17:02.119Z,3.44
2022-12-25T23:22:23.498Z,3.46
2022-12-25T23:27:26.660Z,3.47
2022-12-25T23:32:29.377Z,3.48
2022-12-25T23:37:32.108Z,3.47
2022-12-25T23:42:34.908Z,3.47
2022-12-25T23:47:38.169Z,3.49
2022-12-25T23:52:40.900Z,3.50
2022-12-25T23:57:43.627Z,3.53
